createdAt,value
2019-02-17T00:03:00.297Z,7.77
2019-02-17T00:08:04.828Z,7.40
2019-02-17T00:13:10.070Z,6.90
2019-02-17T00:18:15.493Z,6.97
2019-02-17T00:23:20.498Z,7.20
2019-02-17T00:28:25.033Z,7.63
2019-02-17T00:33:30.362Z,6.73
2019-02-17T00:38:35.124Z,5.60
2019-02-17T00:43:40.028Z,7.50
2019-02-17T00:48:44.736Z,7.90
2019-02-17T00:53:50.167Z,7.50
2019-02-17T00:58:56.064Z,8.70
2019-02-17T01:04:01.188Z,8.47
2019-02-17T01:09:06.299Z,8.23
2019-02-17T01:14:11.658Z,7.73
2019-02-17T01:19:16.079Z,8.17
2019-02-17T01:24:21.111Z,8.77
2019-02-17T01:29:26.442Z,9.20
2019-02-17T01:34:31.716Z,8.10
2019-02-17T01:39:36.473Z,9.50
2019-02-17T01:44:41.627Z,9.30
2019-02-17T01:49:46.525Z,9.00
2019-02-17T01:54:51.121Z,9.90
2019-02-17T01:59:55.680Z,8.88
2019-02-17T02:05:01.100Z,8.30
2019-02-17T02:10:06.242Z,8.63
2019-02-17T02:15:11.340Z,9.05
2019-02-17T02:20:17.886Z,8.47
2019-02-17T02:25:22.398Z,9.30
2019-02-17T02:30:28.239Z,8.50
2019-02-17T02:35:33.628Z,8.47
2019-02-17T02:40:38.871Z,9.37
2019-02-17T02:45:43.443Z,7.97
2019-02-17T02:50:48.306Z,8.23
2019-02-17T02:55:52.966Z,8.33
2019-02-17T03:00:58.608Z,7.83
2019-02-17T03:06:13.237Z,7.87
2019-02-17T03:11:17.601Z,7.53
2019-02-17T03:16:22.521Z,8.23
2019-02-17T03:21:27.519Z,8.20
2019-02-17T03:26:31.975Z,9.70
2019-02-17T03:31:38.418Z,9.03
2019-02-17T03:36:43.073Z,8.37
2019-02-17T03:41:48.776Z,9.60
2019-02-17T03:46:53.492Z,10.17
2019-02-17T03:51:59.559Z,8.85
2019-02-17T03:57:04.703Z,9.03
2019-02-17T04:02:09.044Z,8.97
2019-02-17T04:07:14.301Z,8.37
2019-02-17T04:12:20.348Z,9.40
2019-02-17T04:17:25.208Z,9.33
2019-02-17T04:22:29.563Z,8.10
2019-02-17T04:27:34.463Z,9.07
2019-02-17T04:32:39.663Z,7.97
2019-02-17T04:37:44.716Z,8.40
2019-02-17T04:42:49.314Z,8.00
2019-02-17T04:47:54.448Z,7.47
2019-02-17T04:52:59.726Z,7.40
2019-02-17T04:58:04.444Z,7.05
2019-02-17T05:03:09.672Z,7.17
2019-02-17T05:08:15.152Z,7.07
2019-02-17T05:13:20.921Z,7.17
2019-02-17T05:18:27.241Z,6.20
2019-02-17T05:23:32.474Z,5.70
2019-02-17T05:28:37.696Z,6.05
2019-02-17T05:33:44.218Z,6.33
2019-02-17T05:38:48.752Z,5.50
2019-02-17T05:43:53.473Z,6.00
2019-02-17T05:48:59.173Z,5.70
2019-02-17T05:54:04.480Z,4.80
2019-02-17T05:59:09.279Z,4.80
2019-02-17T06:04:14.447Z,4.90
2019-02-17T06:09:19.907Z,5.30
2019-02-17T06:14:24.389Z,5.30
2019-02-17T06:19:29.466Z,6.63
2019-02-17T06:24:35.956Z,6.70
2019-02-17T06:29:40.761Z,7.07
2019-02-17T06:34:45.409Z,6.67
2019-02-17T06:39:50.979Z,6.20
2019-02-17T06:44:56.458Z,7.13
2019-02-17T06:50:01.978Z,7.33
2019-02-17T06:55:33.408Z,7.10
2019-02-17T07:00:41.307Z,7.63
2019-02-17T07:06:08.574Z,7.63
2019-02-17T07:11:13.882Z,5.97
2019-02-17T07:16:20.185Z,5.85
2019-02-17T07:21:25.028Z,6.13
2019-02-17T07:26:29.609Z,6.73
2019-02-17T07:31:35.465Z,5.27
2019-02-17T07:36:41.287Z,5.30
2019-02-17T07:41:47.632Z,6.00
2019-02-17T07:46:52.870Z,5.10
2019-02-17T07:51:58.227Z,5.60
2019-02-17T07:57:03.342Z,6.43
2019-02-17T08:02:08.651Z,6.87
2019-02-17T08:07:13.593Z,7.83
2019-02-17T08:12:18.666Z,7.10
2019-02-17T08:17:24.465Z,7.83
2019-02-17T08:22:30.344Z,6.83
2019-02-17T08:27:35.271Z,7.93
2019-02-17T08:32:41.024Z,7.12
2019-02-17T08:37:45.765Z,6.03
2019-02-17T08:42:51.130Z,4.57
2019-02-17T08:47:56.703Z,4.03
2019-02-17T08:53:02.396Z,4.97
2019-02-17T08:58:07.974Z,5.22
2019-02-17T09:03:13.166Z,5.87
2019-02-17T09:08:20.305Z,5.85
2019-02-17T09:13:25.557Z,5.58
2019-02-17T09:18:37.492Z,6.55
2019-02-17T09:23:42.266Z,6.42
2019-02-17T09:28:47.289Z,6.08
2019-02-17T09:33:54.800Z,6.42
2019-02-17T09:39:01.067Z,8.50
2019-02-17T09:44:11.123Z,6.90
2019-02-17T09:49:15.958Z,6.22
2019-02-17T09:54:21.764Z,6.25
2019-02-17T09:59:27.064Z,5.53
2019-02-17T10:04:33.770Z,6.25
2019-02-17T10:09:39.550Z,6.62
2019-02-17T10:14:44.826Z,6.30
2019-02-17T10:20:11.767Z,6.10
2019-02-17T10:25:16.461Z,5.97
2019-02-17T10:30:22.059Z,6.45
2019-02-17T10:35:29.638Z,6.17
2019-02-17T10:40:35.025Z,6.47
2019-02-17T10:45:41.178Z,6.17
2019-02-17T10:50:46.448Z,5.43
2019-02-17T10:55:51.466Z,5.35
2019-02-17T11:00:57.887Z,4.90
2019-02-17T11:06:03.659Z,5.40
2019-02-17T11:11:08.383Z,5.60
2019-02-17T11:16:12.906Z,5.92
2019-02-17T11:21:17.636Z,5.47
2019-02-17T11:26:23.249Z,4.63
2019-02-17T11:31:28.194Z,4.40
2019-02-17T11:36:35.043Z,4.10
2019-02-17T11:41:40.129Z,4.17
2019-02-17T11:46:45.063Z,4.20
2019-02-17T11:51:50.522Z,4.30
2019-02-17T11:56:57.809Z,4.40
2019-02-17T12:02:03.384Z,2.63
2019-02-17T12:07:08.801Z,2.83
2019-02-17T12:12:15.852Z,2.50
2019-02-17T12:17:21.108Z,3.67
2019-02-17T12:22:31.423Z,3.17
2019-02-17T12:27:54.829Z,3.60
2019-02-17T12:33:00.494Z,3.40
2019-02-17T12:38:04.940Z,3.47
2019-02-17T12:43:12.014Z,3.65
2019-02-17T12:48:17.002Z,4.33
2019-02-17T12:53:22.105Z,3.37
2019-02-17T12:58:30.212Z,3.70
2019-02-17T13:03:34.893Z,3.45
2019-02-17T13:08:39.736Z,3.20
2019-02-17T13:13:45.991Z,4.10
2019-02-17T13:18:50.609Z,4.37
2019-02-17T13:23:56.483Z,2.87
2019-02-17T13:29:02.016Z,4.80
2019-02-17T13:34:06.496Z,3.00
2019-02-17T13:39:11.554Z,2.15
2019-02-17T13:44:16.163Z,3.55
2019-02-17T13:49:22.187Z,3.17
2019-02-17T13:55:02.132Z,3.37
2019-02-17T14:00:09.622Z,3.00
2019-02-17T14:05:15.456Z,3.77
2019-02-17T14:10:20.886Z,3.10
2019-02-17T14:15:28.685Z,3.70
2019-02-17T14:20:33.582Z,2.80
2019-02-17T14:25:38.405Z,3.10
2019-02-17T14:30:43.105Z,2.87
2019-02-17T14:35:48.341Z,4.53
2019-02-17T14:40:53.468Z,2.70
2019-02-17T14:45:58.382Z,2.42
2019-02-17T14:51:03.358Z,2.37
2019-02-17T14:56:08.370Z,1.57
2019-02-17T15:01:13.253Z,2.10
2019-02-17T15:06:18.722Z,1.90
2019-02-17T15:11:25.965Z,1.90
2019-02-17T15:16:31.816Z,1.53
2019-02-17T15:21:37.995Z,1.67
2019-02-17T15:26:46.910Z,2.17
2019-02-17T15:31:52.616Z,1.43
2019-02-17T15:36:57.982Z,1.60
2019-02-17T15:42:03.100Z,1.20
2019-02-17T15:47:13.066Z,1.42
2019-02-17T15:52:18.595Z,1.32
2019-02-17T15:57:25.176Z,1.40
2019-02-17T16:02:31.173Z,1.30
2019-02-17T16:07:40.363Z,1.80
2019-02-17T16:12:45.384Z,1.50
2019-02-17T16:17:52.202Z,1.60
2019-02-17T16:22:58.740Z,1.90
2019-02-17T16:28:03.487Z,1.93
2019-02-17T16:33:12.147Z,1.73
2019-02-17T16:38:18.131Z,1.57
2019-02-17T16:43:24.745Z,1.63
2019-02-17T16:48:29.824Z,1.82
2019-02-17T16:53:35.691Z,2.07
2019-02-17T16:58:40.896Z,2.33
2019-02-17T17:03:45.939Z,2.13
2019-02-17T17:08:53.729Z,2.33
2019-02-17T17:14:02.578Z,4.17
2019-02-17T17:19:07.886Z,5.33
2019-02-17T17:24:13.309Z,5.70
2019-02-17T17:29:19.356Z,7.60
2019-02-17T17:35:19.047Z,13.70
2019-02-17T17:40:25.278Z,10.23
2019-02-17T17:45:31.802Z,15.67
2019-02-17T17:50:37.106Z,10.47
2019-02-17T17:55:42.915Z,9.67
2019-02-17T18:00:48.351Z,5.63
2019-02-17T18:05:53.198Z,2.53
2019-02-17T18:10:58.682Z,2.10
2019-02-17T18:16:05.333Z,2.33
2019-02-17T18:21:13.657Z,2.43
2019-02-17T18:26:18.602Z,2.50
2019-02-17T18:31:24.753Z,2.53
2019-02-17T18:36:32.021Z,2.17
2019-02-17T18:41:37.671Z,2.77
2019-02-17T18:46:43.702Z,1.80
2019-02-17T18:51:49.566Z,2.20
2019-02-17T18:57:08.003Z,2.10
2019-02-17T19:02:09.810Z,2.60
2019-02-17T19:07:15.691Z,2.07
2019-02-17T19:12:21.775Z,2.50
2019-02-17T19:17:27.289Z,2.03
2019-02-17T19:22:32.478Z,3.70
2019-02-17T19:27:39.455Z,3.77
2019-02-17T19:32:47.390Z,3.27
2019-02-17T19:37:52.419Z,3.43
2019-02-17T19:42:58.237Z,3.20
2019-02-17T19:48:03.954Z,3.63
2019-02-17T19:53:24.624Z,3.27
2019-02-17T19:58:30.388Z,3.27
2019-02-17T20:03:53.228Z,3.22
2019-02-17T20:08:59.555Z,3.57
2019-02-17T20:14:04.311Z,2.77
2019-02-17T20:19:09.770Z,3.20
2019-02-17T20:24:15.840Z,3.03
2019-02-17T20:29:22.742Z,3.07
2019-02-17T20:34:28.479Z,3.13
2019-02-17T20:39:33.970Z,3.30
2019-02-17T20:44:43.559Z,3.20
2019-02-17T20:49:48.974Z,3.23
2019-02-17T20:54:54.018Z,3.00
2019-02-17T20:59:59.028Z,3.07
2019-02-17T21:05:03.488Z,3.77
2019-02-17T21:10:09.194Z,3.53
2019-02-17T21:15:14.447Z,3.57
2019-02-17T21:20:19.894Z,3.80
2019-02-17T21:25:26.618Z,3.70
2019-02-17T21:30:31.198Z,3.73
2019-02-17T21:35:36.399Z,3.62
2019-02-17T21:40:42.251Z,4.40
2019-02-17T21:45:46.748Z,3.73
2019-02-17T21:50:51.795Z,4.20
2019-02-17T21:55:57.253Z,4.27
2019-02-17T22:01:03.251Z,4.00
2019-02-17T22:06:08.145Z,4.37
2019-02-17T22:11:13.317Z,4.03
2019-02-17T22:16:20.294Z,4.17
2019-02-17T22:21:25.610Z,3.37
2019-02-17T22:26:30.073Z,4.43
2019-02-17T22:31:35.504Z,4.07
2019-02-17T22:36:43.710Z,3.87
2019-02-17T22:41:47.773Z,4.43
2019-02-17T22:46:52.462Z,4.10
2019-02-17T22:51:58.156Z,4.50
2019-02-17T22:57:02.620Z,4.57
2019-02-17T23:02:07.547Z,4.40
2019-02-17T23:07:12.324Z,4.00
2019-02-17T23:12:16.881Z,4.13
2019-02-17T23:17:22.067Z,4.07
2019-02-17T23:22:27.622Z,4.23
2019-02-17T23:27:33.195Z,4.50
2019-02-17T23:32:39.377Z,4.50
2019-02-17T23:37:45.259Z,4.30
2019-02-17T23:42:50.053Z,4.30
2019-02-17T23:47:55.084Z,4.20
2019-02-17T23:52:59.491Z,3.87
2019-02-17T23:58:04.323Z,4.13
